sensor_id;sensor_type;location;lat;lon;timestamp;pressure;altitude;pressure_sealevel;temperature;humidity
15193;BME280;7697;51.630;7.484;2023-05-20T00:02:00;101592.44;;;15.53;59.34
15193;BME280;7697;51.630;7.484;2023-05-20T00:07:02;101601.47;;;15.52;59.35
15193;BME280;7697;51.630;7.484;2023-05-20T00:12:05;101594.09;;;15.47;59.38
15193;BME280;7697;51.630;7.484;2023-05-20T00:17:08;101596.53;;;15.42;59.17
15193;BME280;7697;51.630;7.484;2023-05-20T00:22:10;101592.66;;;15.38;59.61
15193;BME280;7697;51.630;7.484;2023-05-20T00:27:11;101599.41;;;15.34;60.13
15193;BME280;7697;51.630;7.484;2023-05-20T00:32:15;101590.59;;;15.27;60.29
15193;BME280;7697;51.630;7.484;2023-05-20T00:37:16;101598.16;;;15.23;60.08
15193;BME280;7697;51.630;7.484;2023-05-20T00:42:19;101605.59;;;15.28;60.15
15193;BME280;7697;51.630;7.484;2023-05-20T00:47:26;101597.78;;;15.20;60.12
15193;BME280;7697;51.630;7.484;2023-05-20T00:52:30;101594.06;;;15.08;61.08
15193;BME280;7697;51.630;7.484;2023-05-20T00:57:32;101600.81;;;15.03;61.11
15193;BME280;7697;51.630;7.484;2023-05-20T01:02:35;101597.94;;;14.92;61.15
15193;BME280;7697;51.630;7.484;2023-05-20T01:07:37;101593.81;;;14.89;61.33
15193;BME280;7697;51.630;7.484;2023-05-20T01:12:42;101594.22;;;14.86;61.66
15193;BME280;7697;51.630;7.484;2023-05-20T01:17:50;101598.13;;;14.84;61.90
15193;BME280;7697;51.630;7.484;2023-05-20T01:22:55;101587.84;;;14.74;61.91
15193;BME280;7697;51.630;7.484;2023-05-20T01:27:57;101587.41;;;14.71;62.60
15193;BME280;7697;51.630;7.484;2023-05-20T01:33:02;101576.34;;;14.67;63.15
15193;BME280;7697;51.630;7.484;2023-05-20T01:38:07;101574.88;;;14.58;63.10
15193;BME280;7697;51.630;7.484;2023-05-20T01:43:10;101582.25;;;14.56;64.30
15193;BME280;7697;51.630;7.484;2023-05-20T01:48:12;101571.59;;;14.49;64.51
15193;BME280;7697;51.630;7.484;2023-05-20T01:53:15;101582.81;;;14.45;65.13
15193;BME280;7697;51.630;7.484;2023-05-20T01:58:17;101570.66;;;14.36;65.02
15193;BME280;7697;51.630;7.484;2023-05-20T02:03:19;101569.00;;;14.28;65.25
15193;BME280;7697;51.630;7.484;2023-05-20T02:08:22;101564.03;;;14.18;65.84
15193;BME280;7697;51.630;7.484;2023-05-20T02:13:24;101568.09;;;14.14;65.61
15193;BME280;7697;51.630;7.484;2023-05-20T02:18:26;101576.69;;;14.03;66.03
15193;BME280;7697;51.630;7.484;2023-05-20T02:23:29;101574.78;;;13.97;65.81
15193;BME280;7697;51.630;7.484;2023-05-20T02:28:31;101578.03;;;13.86;66.69
15193;BME280;7697;51.630;7.484;2023-05-20T02:33:32;101576.75;;;13.82;67.12
15193;BME280;7697;51.630;7.484;2023-05-20T02:38:36;101570.16;;;13.78;67.71
15193;BME280;7697;51.630;7.484;2023-05-20T02:43:37;101570.53;;;13.68;68.16
15193;BME280;7697;51.630;7.484;2023-05-20T02:48:40;101558.44;;;13.66;68.40
15193;BME280;7697;51.630;7.484;2023-05-20T02:53:43;101568.09;;;13.73;67.70
15193;BME280;7697;51.630;7.484;2023-05-20T02:58:44;101555.38;;;13.69;68.40
15193;BME280;7697;51.630;7.484;2023-05-20T03:03:46;101561.09;;;13.66;68.70
15193;BME280;7697;51.630;7.484;2023-05-20T03:08:49;101563.16;;;13.70;68.59
15193;BME280;7697;51.630;7.484;2023-05-20T03:13:51;101550.19;;;13.61;69.12
15193;BME280;7697;51.630;7.484;2023-05-20T03:18:53;101557.34;;;13.60;69.28
15193;BME280;7697;51.630;7.484;2023-05-20T03:23:56;101554.50;;;13.62;69.12
15193;BME280;7697;51.630;7.484;2023-05-20T03:28:58;101557.78;;;13.64;68.86
15193;BME280;7697;51.630;7.484;2023-05-20T03:34:00;101559.44;;;13.65;69.53
15193;BME280;7697;51.630;7.484;2023-05-20T03:39:03;101559.78;;;13.55;69.62
15193;BME280;7697;51.630;7.484;2023-05-20T03:44:05;101564.66;;;13.51;70.42
15193;BME280;7697;51.630;7.484;2023-05-20T03:49:07;101559.97;;;13.53;70.73
15193;BME280;7697;51.630;7.484;2023-05-20T03:54:10;101544.78;;;13.47;70.64
15193;BME280;7697;51.630;7.484;2023-05-20T03:59:12;101547.81;;;13.44;70.72
15193;BME280;7697;51.630;7.484;2023-05-20T04:04:14;101547.44;;;13.47;71.16
15193;BME280;7697;51.630;7.484;2023-05-20T04:09:17;101541.66;;;13.37;71.73
15193;BME280;7697;51.630;7.484;2023-05-20T04:14:19;101531.19;;;13.36;71.85
15193;BME280;7697;51.630;7.484;2023-05-20T04:19:20;101534.47;;;13.38;72.48
15193;BME280;7697;51.630;7.484;2023-05-20T04:24:25;101547.06;;;13.50;72.22
15193;BME280;7697;51.630;7.484;2023-05-20T04:29:27;101548.31;;;13.55;72.29
15193;BME280;7697;51.630;7.484;2023-05-20T04:34:29;101544.28;;;13.65;71.81
15193;BME280;7697;51.630;7.484;2023-05-20T04:39:35;101544.09;;;13.67;72.10
15193;BME280;7697;51.630;7.484;2023-05-20T04:44:38;101551.75;;;13.76;72.70
15193;BME280;7697;51.630;7.484;2023-05-20T04:49:40;101537.81;;;13.81;72.79
15193;BME280;7697;51.630;7.484;2023-05-20T04:54:43;101542.34;;;13.87;72.74
15193;BME280;7697;51.630;7.484;2023-05-20T04:59:45;101537.91;;;13.94;73.04
15193;BME280;7697;51.630;7.484;2023-05-20T05:04:47;101542.47;;;14.07;73.14
15193;BME280;7697;51.630;7.484;2023-05-20T05:09:50;101542.09;;;14.16;73.08
15193;BME280;7697;51.630;7.484;2023-05-20T05:14:51;101555.25;;;14.24;72.81
15193;BME280;7697;51.630;7.484;2023-05-20T05:19:53;101552.19;;;14.27;72.66
15193;BME280;7697;51.630;7.484;2023-05-20T05:24:56;101551.38;;;14.34;72.53
15193;BME280;7697;51.630;7.484;2023-05-20T05:29:58;101552.06;;;14.42;72.11
15193;BME280;7697;51.630;7.484;2023-05-20T05:35:00;101546.97;;;14.54;72.52
15193;BME280;7697;51.630;7.484;2023-05-20T05:40:05;101545.38;;;14.66;72.67
15193;BME280;7697;51.630;7.484;2023-05-20T05:45:08;101543.53;;;14.73;72.07
15193;BME280;7697;51.630;7.484;2023-05-20T05:50:10;101548.06;;;14.79;71.64
15193;BME280;7697;51.630;7.484;2023-05-20T05:55:13;101536.16;;;14.88;72.18
15193;BME280;7697;51.630;7.484;2023-05-20T06:00:16;101538.84;;;15.01;71.94
15193;BME280;7697;51.630;7.484;2023-05-20T06:05:18;101545.19;;;15.14;71.49
15193;BME280;7697;51.630;7.484;2023-05-20T06:10:21;101540.72;;;15.21;71.06
15193;BME280;7697;51.630;7.484;2023-05-20T06:15:23;101529.59;;;15.30;71.03
15193;BME280;7697;51.630;7.484;2023-05-20T06:20:25;101538.00;;;15.40;71.22
15193;BME280;7697;51.630;7.484;2023-05-20T06:25:28;101527.97;;;15.36;71.44
15193;BME280;7697;51.630;7.484;2023-05-20T06:30:30;101528.97;;;15.35;71.27
15193;BME280;7697;51.630;7.484;2023-05-20T06:35:32;101539.88;;;15.47;71.35
15193;BME280;7697;51.630;7.484;2023-05-20T06:40:35;101523.00;;;15.59;71.29
15193;BME280;7697;51.630;7.484;2023-05-20T06:45:37;101526.84;;;15.90;70.87
15193;BME280;7697;51.630;7.484;2023-05-20T06:50:39;101527.47;;;15.85;70.14
15193;BME280;7697;51.630;7.484;2023-05-20T06:55:42;101521.53;;;15.76;70.58
15193;BME280;7697;51.630;7.484;2023-05-20T07:00:44;101518.28;;;15.68;71.31
15193;BME280;7697;51.630;7.484;2023-05-20T07:05:49;101529.53;;;15.76;71.07
15193;BME280;7697;51.630;7.484;2023-05-20T07:10:54;101526.28;;;15.74;70.46
15193;BME280;7697;51.630;7.484;2023-05-20T07:15:56;101525.06;;;15.64;71.25
15193;BME280;7697;51.630;7.484;2023-05-20T07:20:57;101516.41;;;15.68;71.27
15193;BME280;7697;51.630;7.484;2023-05-20T07:26:01;101509.88;;;15.64;71.43
15193;BME280;7697;51.630;7.484;2023-05-20T07:31:03;101507.78;;;15.66;71.52
15193;BME280;7697;51.630;7.484;2023-05-20T07:36:05;101505.31;;;15.71;71.93
15193;BME280;7697;51.630;7.484;2023-05-20T07:41:08;101506.97;;;15.72;71.43
15193;BME280;7697;51.630;7.484;2023-05-20T07:46:10;101497.13;;;15.73;71.40
15193;BME280;7697;51.630;7.484;2023-05-20T07:51:12;101500.38;;;15.82;71.69
15193;BME280;7697;51.630;7.484;2023-05-20T07:56:15;101500.34;;;15.88;71.76
15193;BME280;7697;51.630;7.484;2023-05-20T08:01:17;101504.81;;;16.01;71.95
15193;BME280;7697;51.630;7.484;2023-05-20T08:06:19;101508.25;;;16.14;71.50
15193;BME280;7697;51.630;7.484;2023-05-20T08:11:22;101496.72;;;16.14;71.26
15193;BME280;7697;51.630;7.484;2023-05-20T08:16:24;101495.88;;;16.20;71.38
15193;BME280;7697;51.630;7.484;2023-05-20T08:21:26;101496.22;;;16.37;71.21
15193;BME280;7697;51.630;7.484;2023-05-20T08:26:29;101490.41;;;16.40;71.13
15193;BME280;7697;51.630;7.484;2023-05-20T08:31:31;101491.81;;;16.49;71.15
15193;BME280;7697;51.630;7.484;2023-05-20T08:36:33;101487.84;;;16.58;70.73
15193;BME280;7697;51.630;7.484;2023-05-20T08:41:37;101490.97;;;16.48;70.34
15193;BME280;7697;51.630;7.484;2023-05-20T08:46:40;101486.75;;;16.34;70.59
15193;BME280;7697;51.630;7.484;2023-05-20T08:51:42;101492.72;;;16.36;70.86
15193;BME280;7697;51.630;7.484;2023-05-20T08:56:47;101484.50;;;16.31;71.46
15193;BME280;7697;51.630;7.484;2023-05-20T09:01:48;101488.16;;;16.43;71.57
15193;BME280;7697;51.630;7.484;2023-05-20T09:06:50;101496.13;;;16.50;71.44
15193;BME280;7697;51.630;7.484;2023-05-20T09:11:53;101492.81;;;16.55;71.12
15193;BME280;7697;51.630;7.484;2023-05-20T09:16:55;101487.59;;;16.66;71.40
15193;BME280;7697;51.630;7.484;2023-05-20T09:21:57;101473.94;;;16.81;70.72
15193;BME280;7697;51.630;7.484;2023-05-20T09:27:00;101486.59;;;16.92;70.80
15193;BME280;7697;51.630;7.484;2023-05-20T09:32:03;101480.69;;;17.08;70.88
15193;BME280;7697;51.630;7.484;2023-05-20T09:37:06;101479.00;;;17.14;70.54
15193;BME280;7697;51.630;7.484;2023-05-20T09:42:14;101470.75;;;17.15;70.21
15193;BME280;7697;51.630;7.484;2023-05-20T09:47:19;101480.56;;;17.21;70.41
15193;BME280;7697;51.630;7.484;2023-05-20T09:52:21;101482.13;;;17.29;70.05
15193;BME280;7697;51.630;7.484;2023-05-20T09:57:24;101468.44;;;17.37;70.04
15193;BME280;7697;51.630;7.484;2023-05-20T10:02:26;101460.06;;;17.52;70.93
15193;BME280;7697;51.630;7.484;2023-05-20T10:07:45;101464.84;;;17.68;70.22
15193;BME280;7697;51.630;7.484;2023-05-20T10:12:57;101440.28;;;17.89;70.53
15193;BME280;7697;51.630;7.484;2023-05-20T10:18:10;101438.63;;;18.18;69.86
15193;BME280;7697;51.630;7.484;2023-05-20T10:23:20;101424.34;;;18.36;69.57
15193;BME280;7697;51.630;7.484;2023-05-20T10:28:31;101414.25;;;18.61;69.07
15193;BME280;7697;51.630;7.484;2023-05-20T10:33:41;101407.53;;;18.82;68.73
15193;BME280;7697;51.630;7.484;2023-05-20T10:38:50;101417.19;;;19.06;67.81
15193;BME280;7697;51.630;7.484;2023-05-20T10:44:01;101409.47;;;19.33;66.40
15193;BME280;7697;51.630;7.484;2023-05-20T10:49:03;101402.66;;;19.42;65.77
15193;BME280;7697;51.630;7.484;2023-05-20T10:54:08;101393.38;;;19.73;64.71
15193;BME280;7697;51.630;7.484;2023-05-20T10:59:12;101396.13;;;19.90;63.71
15193;BME280;7697;51.630;7.484;2023-05-20T11:04:15;101394.09;;;19.97;64.13
15193;BME280;7697;51.630;7.484;2023-05-20T11:09:17;101381.22;;;19.99;62.76
15193;BME280;7697;51.630;7.484;2023-05-20T11:14:20;101379.09;;;20.30;61.39
15193;BME280;7697;51.630;7.484;2023-05-20T11:19:22;101374.97;;;20.10;62.18
15193;BME280;7697;51.630;7.484;2023-05-20T11:24:25;101379.63;;;20.32;62.73
15193;BME280;7697;51.630;7.484;2023-05-20T11:29:29;101376.94;;;20.32;59.64
15193;BME280;7697;51.630;7.484;2023-05-20T11:34:35;101381.59;;;20.19;60.54
15193;BME280;7697;51.630;7.484;2023-05-20T11:39:37;101377.84;;;20.20;61.00
15193;BME280;7697;51.630;7.484;2023-05-20T11:44:43;101382.00;;;20.11;60.77
15193;BME280;7697;51.630;7.484;2023-05-20T11:49:47;101358.09;;;20.15;61.18
15193;BME280;7697;51.630;7.484;2023-05-20T11:54:51;101356.00;;;20.50;59.24
15193;BME280;7697;51.630;7.484;2023-05-20T11:59:54;101349.72;;;20.78;59.92
15193;BME280;7697;51.630;7.484;2023-05-20T12:04:56;101342.50;;;21.01;58.26
15193;BME280;7697;51.630;7.484;2023-05-20T12:09:58;101340.94;;;21.48;57.59
15193;BME280;7697;51.630;7.484;2023-05-20T12:15:02;101331.13;;;21.91;56.27
15193;BME280;7697;51.630;7.484;2023-05-20T12:20:05;101336.56;;;21.96;54.61
15193;BME280;7697;51.630;7.484;2023-05-20T12:25:08;101328.44;;;22.18;53.53
15193;BME280;7697;51.630;7.484;2023-05-20T12:30:11;101318.66;;;22.49;54.14
15193;BME280;7697;51.630;7.484;2023-05-20T12:35:13;101326.44;;;22.82;52.23
15193;BME280;7697;51.630;7.484;2023-05-20T12:40:15;101321.44;;;22.64;51.67
15193;BME280;7697;51.630;7.484;2023-05-20T12:45:18;101313.22;;;22.06;53.89
15193;BME280;7697;51.630;7.484;2023-05-20T12:50:20;101324.13;;;21.90;54.18
15193;BME280;7697;51.630;7.484;2023-05-20T12:55:22;101315.06;;;21.74;54.57
15193;BME280;7697;51.630;7.484;2023-05-20T13:00:25;101313.09;;;21.64;54.44
15193;BME280;7697;51.630;7.484;2023-05-20T13:05:27;101313.00;;;21.59;55.13
15193;BME280;7697;51.630;7.484;2023-05-20T13:10:29;101300.94;;;21.67;54.15
15193;BME280;7697;51.630;7.484;2023-05-20T13:15:32;101292.50;;;21.58;54.45
15193;BME280;7697;51.630;7.484;2023-05-20T13:20:35;101287.66;;;21.33;54.42
15193;BME280;7697;51.630;7.484;2023-05-20T13:25:37;101282.72;;;21.25;55.59
15193;BME280;7697;51.630;7.484;2023-05-20T13:30:40;101273.50;;;21.43;56.23
15193;BME280;7697;51.630;7.484;2023-05-20T13:35:42;101278.53;;;21.61;55.85
15193;BME280;7697;51.630;7.484;2023-05-20T13:40:44;101265.97;;;21.45;55.88
15193;BME280;7697;51.630;7.484;2023-05-20T13:45:47;101283.94;;;21.40;55.26
15193;BME280;7697;51.630;7.484;2023-05-20T13:50:49;101267.38;;;21.26;55.93
15193;BME280;7697;51.630;7.484;2023-05-20T13:55:51;101259.03;;;21.06;55.90
15193;BME280;7697;51.630;7.484;2023-05-20T14:00:54;101257.97;;;21.07;56.91
15193;BME280;7697;51.630;7.484;2023-05-20T14:05:56;101259.72;;;20.96;57.46
15193;BME280;7697;51.630;7.484;2023-05-20T14:10:58;101250.69;;;20.85;57.74
15193;BME280;7697;51.630;7.484;2023-05-20T14:16:01;101254.88;;;20.76;57.13
15193;BME280;7697;51.630;7.484;2023-05-20T14:21:03;101247.91;;;20.75;57.96
15193;BME280;7697;51.630;7.484;2023-05-20T14:26:05;101243.63;;;20.79;57.59
15193;BME280;7697;51.630;7.484;2023-05-20T14:31:08;101240.94;;;21.01;57.81
15193;BME280;7697;51.630;7.484;2023-05-20T14:36:11;101253.28;;;20.97;57.20
15193;BME280;7697;51.630;7.484;2023-05-20T14:41:12;101239.09;;;20.85;56.55
15193;BME280;7697;51.630;7.484;2023-05-20T14:46:16;101243.72;;;20.84;56.74
15193;BME280;7697;51.630;7.484;2023-05-20T14:51:17;101227.22;;;20.81;56.16
15193;BME280;7697;51.630;7.484;2023-05-20T14:56:19;101223.75;;;20.85;57.07
15193;BME280;7697;51.630;7.484;2023-05-20T15:01:23;101223.06;;;20.95;56.96
15193;BME280;7697;51.630;7.484;2023-05-20T15:06:25;101214.75;;;20.96;56.94
15193;BME280;7697;51.630;7.484;2023-05-20T15:11:27;101217.84;;;20.83;57.04
15193;BME280;7697;51.630;7.484;2023-05-20T15:16:31;101211.38;;;20.84;57.43
15193;BME280;7697;51.630;7.484;2023-05-20T15:21:33;101210.13;;;20.70;57.98
15193;BME280;7697;51.630;7.484;2023-05-20T15:26:35;101218.59;;;20.57;58.65
15193;BME280;7697;51.630;7.484;2023-05-20T15:31:38;101221.00;;;20.58;59.23
15193;BME280;7697;51.630;7.484;2023-05-20T15:36:40;101224.50;;;20.59;58.72
15193;BME280;7697;51.630;7.484;2023-05-20T15:41:42;101221.06;;;20.42;59.00
15193;BME280;7697;51.630;7.484;2023-05-20T15:46:45;101216.44;;;20.20;59.08
15193;BME280;7697;51.630;7.484;2023-05-20T15:51:47;101225.97;;;20.11;60.23
15193;BME280;7697;51.630;7.484;2023-05-20T15:56:48;101205.38;;;20.00;60.24
15193;BME280;7697;51.630;7.484;2023-05-20T16:01:51;101203.91;;;19.93;60.48
15193;BME280;7697;51.630;7.484;2023-05-20T16:06:53;101198.13;;;19.84;61.00
15193;BME280;7697;51.630;7.484;2023-05-20T16:11:55;101202.28;;;19.75;60.91
15193;BME280;7697;51.630;7.484;2023-05-20T16:16:58;101202.75;;;19.72;61.42
15193;BME280;7697;51.630;7.484;2023-05-20T16:22:00;101200.47;;;19.64;61.76
15193;BME280;7697;51.630;7.484;2023-05-20T16:27:02;101196.31;;;19.56;61.96
15193;BME280;7697;51.630;7.484;2023-05-20T16:32:06;101185.34;;;19.58;62.39
15193;BME280;7697;51.630;7.484;2023-05-20T16:37:08;101190.63;;;19.53;61.80
15193;BME280;7697;51.630;7.484;2023-05-20T16:42:10;101187.25;;;19.45;62.09
15193;BME280;7697;51.630;7.484;2023-05-20T16:47:13;101179.94;;;19.41;62.60
15193;BME280;7697;51.630;7.484;2023-05-20T16:52:15;101195.69;;;19.37;62.51
15193;BME280;7697;51.630;7.484;2023-05-20T16:57:17;101194.53;;;19.33;62.81
15193;BME280;7697;51.630;7.484;2023-05-20T17:02:20;101197.72;;;19.30;63.33
15193;BME280;7697;51.630;7.484;2023-05-20T17:07:22;101204.97;;;19.30;63.10
15193;BME280;7697;51.630;7.484;2023-05-20T17:12:24;101206.72;;;19.24;63.25
15193;BME280;7697;51.630;7.484;2023-05-20T17:17:27;101207.47;;;19.20;63.76
15193;BME280;7697;51.630;7.484;2023-05-20T17:22:29;101213.06;;;19.18;64.02
15193;BME280;7697;51.630;7.484;2023-05-20T17:27:31;101220.09;;;19.19;64.20
15193;BME280;7697;51.630;7.484;2023-05-20T17:32:34;101226.31;;;19.08;64.52
15193;BME280;7697;51.630;7.484;2023-05-20T17:37:38;101222.72;;;19.02;65.04
15193;BME280;7697;51.630;7.484;2023-05-20T17:42:39;101219.56;;;19.05;64.96
15193;BME280;7697;51.630;7.484;2023-05-20T17:47:43;101204.38;;;18.99;65.50
15193;BME280;7697;51.630;7.484;2023-05-20T17:52:44;101208.75;;;18.89;65.58
15193;BME280;7697;51.630;7.484;2023-05-20T17:57:47;101204.91;;;18.85;66.46
15193;BME280;7697;51.630;7.484;2023-05-20T18:02:50;101206.56;;;18.86;66.30
15193;BME280;7697;51.630;7.484;2023-05-20T18:07:55;101210.59;;;18.88;66.51
15193;BME280;7697;51.630;7.484;2023-05-20T18:12:57;101207.13;;;18.88;66.58
15193;BME280;7697;51.630;7.484;2023-05-20T18:18:00;101216.25;;;18.87;66.81
15193;BME280;7697;51.630;7.484;2023-05-20T18:23:02;101203.19;;;18.79;66.97
15193;BME280;7697;51.630;7.484;2023-05-20T18:28:04;101216.63;;;18.79;67.19
15193;BME280;7697;51.630;7.484;2023-05-20T18:33:09;101213.13;;;18.66;67.65
15193;BME280;7697;51.630;7.484;2023-05-20T18:38:11;101222.38;;;18.59;67.88
15193;BME280;7697;51.630;7.484;2023-05-20T18:43:13;101222.69;;;18.51;68.25
15193;BME280;7697;51.630;7.484;2023-05-20T18:48:16;101222.13;;;18.37;68.93
15193;BME280;7697;51.630;7.484;2023-05-20T18:53:18;101221.19;;;18.31;69.45
15193;BME280;7697;51.630;7.484;2023-05-20T18:58:20;101229.38;;;18.25;69.69
15193;BME280;7697;51.630;7.484;2023-05-20T19:03:23;101218.75;;;18.18;69.61
15193;BME280;7697;51.630;7.484;2023-05-20T19:08:25;101232.50;;;18.22;69.93
15193;BME280;7697;51.630;7.484;2023-05-20T19:13:27;101228.66;;;18.18;70.27
15193;BME280;7697;51.630;7.484;2023-05-20T19:18:31;101236.00;;;18.11;70.24
15193;BME280;7697;51.630;7.484;2023-05-20T19:23:33;101236.22;;;18.09;70.83
15193;BME280;7697;51.630;7.484;2023-05-20T19:28:34;101242.53;;;18.03;71.20
15193;BME280;7697;51.630;7.484;2023-05-20T19:33:37;101233.91;;;18.01;71.41
15193;BME280;7697;51.630;7.484;2023-05-20T19:38:40;101234.72;;;18.02;71.38
15193;BME280;7697;51.630;7.484;2023-05-20T19:43:42;101223.28;;;17.94;71.53
15193;BME280;7697;51.630;7.484;2023-05-20T19:48:45;101230.75;;;17.92;71.67
15193;BME280;7697;51.630;7.484;2023-05-20T19:53:47;101231.66;;;17.86;72.14
15193;BME280;7697;51.630;7.484;2023-05-20T19:58:49;101227.47;;;17.90;72.36
15193;BME280;7697;51.630;7.484;2023-05-20T20:03:52;101229.81;;;17.87;72.30
15193;BME280;7697;51.630;7.484;2023-05-20T20:08:54;101229.09;;;17.80;72.57
15193;BME280;7697;51.630;7.484;2023-05-20T20:13:56;101227.69;;;17.77;72.77
15193;BME280;7697;51.630;7.484;2023-05-20T20:19:00;101225.47;;;17.74;72.75
15193;BME280;7697;51.630;7.484;2023-05-20T20:24:02;101220.34;;;17.73;72.90
15193;BME280;7697;51.630;7.484;2023-05-20T20:29:04;101234.44;;;17.68;72.95
15193;BME280;7697;51.630;7.484;2023-05-20T20:34:07;101224.38;;;17.63;73.31
15193;BME280;7697;51.630;7.484;2023-05-20T20:39:09;101229.81;;;17.57;73.64
15193;BME280;7697;51.630;7.484;2023-05-20T20:44:18;101213.63;;;17.52;73.91
15193;BME280;7697;51.630;7.484;2023-05-20T20:49:23;101222.34;;;17.47;74.32
15193;BME280;7697;51.630;7.484;2023-05-20T20:54:24;101219.31;;;17.44;74.67
15193;BME280;7697;51.630;7.484;2023-05-20T20:59:26;101208.00;;;17.42;74.71
15193;BME280;7697;51.630;7.484;2023-05-20T21:04:31;101211.28;;;17.44;74.69
15193;BME280;7697;51.630;7.484;2023-05-20T21:09:32;101207.31;;;17.35;74.97
15193;BME280;7697;51.630;7.484;2023-05-20T21:14:35;101197.47;;;17.29;75.43
15193;BME280;7697;51.630;7.484;2023-05-20T21:19:38;101192.00;;;17.23;75.45
15193;BME280;7697;51.630;7.484;2023-05-20T21:24:39;101189.19;;;17.18;75.87
15193;BME280;7697;51.630;7.484;2023-05-20T21:29:43;101186.50;;;17.18;75.83
15193;BME280;7697;51.630;7.484;2023-05-20T21:34:46;101190.00;;;17.19;75.72
15193;BME280;7697;51.630;7.484;2023-05-20T21:39:47;101186.59;;;17.12;76.17
15193;BME280;7697;51.630;7.484;2023-05-20T21:44:50;101186.38;;;17.13;76.07
15193;BME280;7697;51.630;7.484;2023-05-20T21:49:53;101175.56;;;17.08;76.33
15193;BME280;7697;51.630;7.484;2023-05-20T21:54:55;101171.91;;;17.03;75.97
15193;BME280;7697;51.630;7.484;2023-05-20T21:59:57;101169.22;;;17.03;75.99
15193;BME280;7697;51.630;7.484;2023-05-20T22:05:00;101164.56;;;16.98;76.09
15193;BME280;7697;51.630;7.484;2023-05-20T22:10:04;101167.25;;;16.98;76.30
15193;BME280;7697;51.630;7.484;2023-05-20T22:15:09;101156.38;;;16.93;76.84
15193;BME280;7697;51.630;7.484;2023-05-20T22:20:13;101153.22;;;16.84;77.16
15193;BME280;7697;51.630;7.484;2023-05-20T22:25:15;101138.06;;;16.78;76.98
15193;BME280;7697;51.630;7.484;2023-05-20T22:30:17;101144.69;;;16.76;76.98
15193;BME280;7697;51.630;7.484;2023-05-20T22:35:20;101126.72;;;16.65;77.78
15193;BME280;7697;51.630;7.484;2023-05-20T22:40:22;101125.50;;;16.61;77.99
15193;BME280;7697;51.630;7.484;2023-05-20T22:45:24;101121.63;;;16.57;77.97
15193;BME280;7697;51.630;7.484;2023-05-20T22:50:28;101108.34;;;16.50;78.09
15193;BME280;7697;51.630;7.484;2023-05-20T22:55:30;101103.97;;;16.37;78.69
15193;BME280;7697;51.630;7.484;2023-05-20T23:00:31;101096.88;;;16.31;78.89
15193;BME280;7697;51.630;7.484;2023-05-20T23:05:35;101083.81;;;16.23;79.25
15193;BME280;7697;51.630;7.484;2023-05-20T23:10:37;101081.34;;;16.22;79.56
15193;BME280;7697;51.630;7.484;2023-05-20T23:15:38;101079.97;;;16.19;79.62
15193;BME280;7697;51.630;7.484;2023-05-20T23:20:42;101077.22;;;16.26;79.92
15193;BME280;7697;51.630;7.484;2023-05-20T23:25:44;101070.88;;;16.20;79.48
15193;BME280;7697;51.630;7.484;2023-05-20T23:30:46;101070.16;;;16.13;79.60
15193;BME280;7697;51.630;7.484;2023-05-20T23:35:50;101075.97;;;16.10;79.62
15193;BME280;7697;51.630;7.484;2023-05-20T23:40:52;101064.19;;;16.11;79.65
15193;BME280;7697;51.630;7.484;2023-05-20T23:45:53;101055.44;;;16.04;79.59
15193;BME280;7697;51.630;7.484;2023-05-20T23:50:56;101051.75;;;16.05;79.42
15193;BME280;7697;51.630;7.484;2023-05-20T23:55:58;101044.03;;;15.97;79.93
